sensor_id;sensor_type;location;lat;lon;timestamp;pressure;altitude;pressure_sealevel;temperature;humidity
82395;BME280;72031;51.786;4.662;2023-09-19T00:02:01;100859.59;;;16.10;74.44
82395;BME280;72031;51.786;4.662;2023-09-19T00:04:33;100861.88;;;16.15;72.40
82395;BME280;72031;51.786;4.662;2023-09-19T00:06:59;100864.81;;;16.21;70.69
82395;BME280;72031;51.786;4.662;2023-09-19T00:09:29;100864.69;;;16.13;68.48
82395;BME280;72031;51.786;4.662;2023-09-19T00:11:55;100871.75;;;16.14;69.23
82395;BME280;72031;51.786;4.662;2023-09-19T00:14:20;100873.75;;;16.12;67.46
82395;BME280;72031;51.786;4.662;2023-09-19T00:16:49;100882.53;;;16.14;67.67
82395;BME280;72031;51.786;4.662;2023-09-19T00:19:15;100885.81;;;16.08;67.75
82395;BME280;72031;51.786;4.662;2023-09-19T00:21:41;100888.22;;;16.01;67.77
82395;BME280;72031;51.786;4.662;2023-09-19T00:24:07;100881.28;;;15.99;67.32
82395;BME280;72031;51.786;4.662;2023-09-19T00:26:34;100885.81;;;15.98;66.88
82395;BME280;72031;51.786;4.662;2023-09-19T00:29:00;100890.91;;;15.92;67.04
82395;BME280;72031;51.786;4.662;2023-09-19T00:31:33;100889.22;;;15.91;67.95
82395;BME280;72031;51.786;4.662;2023-09-19T00:33:59;100900.69;;;15.83;68.07
82395;BME280;72031;51.786;4.662;2023-09-19T00:36:29;100903.78;;;15.79;69.51
82395;BME280;72031;51.786;4.662;2023-09-19T00:38:55;100900.09;;;15.80;68.10
82395;BME280;72031;51.786;4.662;2023-09-19T00:41:20;100896.81;;;15.66;69.26
82395;BME280;72031;51.786;4.662;2023-09-19T00:43:46;100889.00;;;15.63;70.14
82395;BME280;72031;51.786;4.662;2023-09-19T00:46:17;100897.47;;;15.59;69.83
82395;BME280;72031;51.786;4.662;2023-09-19T00:48:42;100907.25;;;15.60;70.81
82395;BME280;72031;51.786;4.662;2023-09-19T00:51:10;100906.78;;;15.55;70.10
82395;BME280;72031;51.786;4.662;2023-09-19T00:53:36;100906.69;;;15.56;71.72
82395;BME280;72031;51.786;4.662;2023-09-19T00:56:03;100905.16;;;15.63;72.26
82395;BME280;72031;51.786;4.662;2023-09-19T00:58:34;100912.53;;;15.61;72.75
82395;BME280;72031;51.786;4.662;2023-09-19T01:01:01;100915.00;;;15.53;74.11
82395;BME280;72031;51.786;4.662;2023-09-19T01:03:27;100913.84;;;15.46;74.95
82395;BME280;72031;51.786;4.662;2023-09-19T01:05:53;100920.47;;;15.32;76.89
82395;BME280;72031;51.786;4.662;2023-09-19T01:08:18;100921.72;;;15.28;76.30
82395;BME280;72031;51.786;4.662;2023-09-19T01:10:51;100912.09;;;15.26;75.30
82395;BME280;72031;51.786;4.662;2023-09-19T01:13:35;100925.09;;;15.20;76.60
82395;BME280;72031;51.786;4.662;2023-09-19T01:19:07;100920.09;;;15.06;75.60
82395;BME280;72031;51.786;4.662;2023-09-19T01:22:07;100930.56;;;15.09;76.01
82395;BME280;72031;51.786;4.662;2023-09-19T01:25:05;100925.63;;;15.14;73.97
82395;BME280;72031;51.786;4.662;2023-09-19T01:30:26;100922.22;;;15.12;73.63
82395;BME280;72031;51.786;4.662;2023-09-19T01:32:53;100927.72;;;15.11;73.10
82395;BME280;72031;51.786;4.662;2023-09-19T01:35:19;100920.25;;;15.14;73.09
82395;BME280;72031;51.786;4.662;2023-09-19T01:37:45;100929.75;;;15.18;73.12
82395;BME280;72031;51.786;4.662;2023-09-19T01:40:17;100929.03;;;15.16;72.76
82395;BME280;72031;51.786;4.662;2023-09-19T01:45:47;100920.16;;;15.26;70.66
82395;BME280;72031;51.786;4.662;2023-09-19T01:48:25;100926.66;;;15.23;71.25
82395;BME280;72031;51.786;4.662;2023-09-19T01:51:06;100922.00;;;15.25;71.07
82395;BME280;72031;51.786;4.662;2023-09-19T01:56:08;100926.09;;;15.29;70.88
82395;BME280;72031;51.786;4.662;2023-09-19T02:01:13;100932.44;;;15.18;73.19
82395;BME280;72031;51.786;4.662;2023-09-19T02:03:41;100927.88;;;15.09;73.33
82395;BME280;72031;51.786;4.662;2023-09-19T02:06:14;100934.84;;;14.91;73.26
82395;BME280;72031;51.786;4.662;2023-09-19T02:08:39;100926.31;;;14.86;73.49
82395;BME280;72031;51.786;4.662;2023-09-19T02:11:05;100938.00;;;14.75;73.79
82395;BME280;72031;51.786;4.662;2023-09-19T02:13:31;100941.53;;;14.76;73.97
82395;BME280;72031;51.786;4.662;2023-09-19T02:15:57;100941.63;;;14.64;75.05
82395;BME280;72031;51.786;4.662;2023-09-19T02:18:22;100945.00;;;14.67;75.20
82395;BME280;72031;51.786;4.662;2023-09-19T02:20:48;100943.69;;;14.61;75.65
82395;BME280;72031;51.786;4.662;2023-09-19T02:23:15;100942.72;;;14.62;75.13
82395;BME280;72031;51.786;4.662;2023-09-19T02:25:41;100934.66;;;14.62;74.76
82395;BME280;72031;51.786;4.662;2023-09-19T02:28:06;100944.03;;;14.68;74.36
82395;BME280;72031;51.786;4.662;2023-09-19T02:30:34;100942.84;;;14.60;74.73
82395;BME280;72031;51.786;4.662;2023-09-19T02:33:01;100942.72;;;14.62;74.38
82395;BME280;72031;51.786;4.662;2023-09-19T02:35:27;100941.75;;;14.63;73.59
82395;BME280;72031;51.786;4.662;2023-09-19T02:37:53;100942.59;;;14.63;74.05
82395;BME280;72031;51.786;4.662;2023-09-19T02:40:18;100948.69;;;14.66;72.59
82395;BME280;72031;51.786;4.662;2023-09-19T02:42:48;100942.81;;;14.72;74.16
82395;BME280;72031;51.786;4.662;2023-09-19T02:45:16;100950.38;;;14.67;73.39
82395;BME280;72031;51.786;4.662;2023-09-19T02:47:46;100958.97;;;14.60;73.26
82395;BME280;72031;51.786;4.662;2023-09-19T02:50:12;100955.28;;;14.61;73.10
82395;BME280;72031;51.786;4.662;2023-09-19T02:52:44;100955.84;;;14.55;72.33
82395;BME280;72031;51.786;4.662;2023-09-19T02:55:12;100945.19;;;14.54;71.89
82395;BME280;72031;51.786;4.662;2023-09-19T02:57:39;100936.56;;;14.50;72.31
82395;BME280;72031;51.786;4.662;2023-09-19T03:00:08;100939.09;;;14.52;71.70
82395;BME280;72031;51.786;4.662;2023-09-19T03:02:36;100945.59;;;14.49;72.15
82395;BME280;72031;51.786;4.662;2023-09-19T03:05:03;100948.41;;;14.48;71.75
82395;BME280;72031;51.786;4.662;2023-09-19T03:07:28;100948.75;;;14.43;71.28
82395;BME280;72031;51.786;4.662;2023-09-19T03:09:54;100946.34;;;14.40;72.78
82395;BME280;72031;51.786;4.662;2023-09-19T03:12:20;100941.47;;;14.34;71.84
82395;BME280;72031;51.786;4.662;2023-09-19T03:14:46;100948.31;;;14.38;72.11
82395;BME280;72031;51.786;4.662;2023-09-19T03:17:11;100944.16;;;14.34;71.90
82395;BME280;72031;51.786;4.662;2023-09-19T03:19:39;100941.00;;;14.29;72.56
82395;BME280;72031;51.786;4.662;2023-09-19T03:22:04;100942.47;;;14.33;71.25
82395;BME280;72031;51.786;4.662;2023-09-19T03:24:30;100941.75;;;14.31;73.14
82395;BME280;72031;51.786;4.662;2023-09-19T03:26:58;100943.69;;;14.29;72.53
82395;BME280;72031;51.786;4.662;2023-09-19T03:29:23;100942.00;;;14.28;72.10
82395;BME280;72031;51.786;4.662;2023-09-19T03:31:49;100950.91;;;14.28;71.76
82395;BME280;72031;51.786;4.662;2023-09-19T03:34:15;100947.63;;;14.25;71.83
82395;BME280;72031;51.786;4.662;2023-09-19T03:36:40;100941.69;;;14.21;72.59
82395;BME280;72031;51.786;4.662;2023-09-19T03:39:06;100942.25;;;14.25;72.71
82395;BME280;72031;51.786;4.662;2023-09-19T03:41:32;100935.63;;;14.29;71.30
82395;BME280;72031;51.786;4.662;2023-09-19T03:43:58;100937.25;;;14.20;71.93
82395;BME280;72031;51.786;4.662;2023-09-19T03:46:24;100944.34;;;14.21;72.61
82395;BME280;72031;51.786;4.662;2023-09-19T03:48:50;100933.84;;;14.18;72.16
82395;BME280;72031;51.786;4.662;2023-09-19T03:51:15;100932.28;;;14.16;72.86
82395;BME280;72031;51.786;4.662;2023-09-19T03:53:41;100932.75;;;14.21;72.18
82395;BME280;72031;51.786;4.662;2023-09-19T03:56:06;100939.94;;;14.20;72.60
82395;BME280;72031;51.786;4.662;2023-09-19T03:58:33;100955.19;;;14.20;72.51
82395;BME280;72031;51.786;4.662;2023-09-19T04:01:03;100958.03;;;14.18;73.55
82395;BME280;72031;51.786;4.662;2023-09-19T04:03:28;100960.13;;;14.15;73.11
82395;BME280;72031;51.786;4.662;2023-09-19T04:06:00;100970.38;;;14.09;73.43
82395;BME280;72031;51.786;4.662;2023-09-19T04:08:26;100968.41;;;14.12;73.94
82395;BME280;72031;51.786;4.662;2023-09-19T04:10:51;100969.38;;;14.11;73.99
82395;BME280;72031;51.786;4.662;2023-09-19T04:13:17;100965.00;;;14.09;73.36
82395;BME280;72031;51.786;4.662;2023-09-19T04:15:43;100969.38;;;14.11;74.44
82395;BME280;72031;51.786;4.662;2023-09-19T04:18:08;100983.06;;;14.07;74.66
82395;BME280;72031;51.786;4.662;2023-09-19T04:20:34;100982.34;;;14.05;75.44
82395;BME280;72031;51.786;4.662;2023-09-19T04:22:59;100991.38;;;14.04;75.51
82395;BME280;72031;51.786;4.662;2023-09-19T04:25:25;100999.16;;;14.07;75.65
82395;BME280;72031;51.786;4.662;2023-09-19T04:27:52;101001.84;;;14.07;75.90
82395;BME280;72031;51.786;4.662;2023-09-19T04:30:17;100996.84;;;14.03;77.10
82395;BME280;72031;51.786;4.662;2023-09-19T04:32:43;100999.66;;;14.13;76.10
82395;BME280;72031;51.786;4.662;2023-09-19T04:35:09;100993.31;;;14.14;74.82
82395;BME280;72031;51.786;4.662;2023-09-19T04:37:39;101001.59;;;14.11;76.12
82395;BME280;72031;51.786;4.662;2023-09-19T04:40:07;100995.25;;;14.12;77.25
82395;BME280;72031;51.786;4.662;2023-09-19T04:42:38;100991.34;;;14.16;75.46
82395;BME280;72031;51.786;4.662;2023-09-19T04:45:03;101001.22;;;14.15;76.29
82395;BME280;72031;51.786;4.662;2023-09-19T04:47:30;100998.53;;;14.15;75.73
82395;BME280;72031;51.786;4.662;2023-09-19T04:49:55;101002.78;;;14.18;75.63
82395;BME280;72031;51.786;4.662;2023-09-19T04:52:22;101001.31;;;14.25;75.31
82395;BME280;72031;51.786;4.662;2023-09-19T04:54:47;101002.88;;;14.27;75.51
82395;BME280;72031;51.786;4.662;2023-09-19T04:57:13;100999.56;;;14.35;75.29
82395;BME280;72031;51.786;4.662;2023-09-19T04:59:39;101002.97;;;14.37;75.49
82395;BME280;72031;51.786;4.662;2023-09-19T05:02:06;101007.63;;;14.35;76.00
82395;BME280;72031;51.786;4.662;2023-09-19T05:04:33;101010.56;;;14.32;75.13
82395;BME280;72031;51.786;4.662;2023-09-19T05:06:59;100998.84;;;14.33;75.44
82395;BME280;72031;51.786;4.662;2023-09-19T05:09:26;101009.94;;;14.40;75.94
82395;BME280;72031;51.786;4.662;2023-09-19T05:11:51;101014.56;;;14.37;76.13
82395;BME280;72031;51.786;4.662;2023-09-19T05:14:18;101013.25;;;14.32;76.22
82395;BME280;72031;51.786;4.662;2023-09-19T05:16:44;101015.69;;;14.35;76.04
82395;BME280;72031;51.786;4.662;2023-09-19T05:19:09;101017.78;;;14.31;76.18
82395;BME280;72031;51.786;4.662;2023-09-19T05:21:37;101015.81;;;14.33;77.66
82395;BME280;72031;51.786;4.662;2023-09-19T05:24:05;101010.16;;;14.36;76.53
82395;BME280;72031;51.786;4.662;2023-09-19T05:26:32;101015.22;;;14.30;77.20
82395;BME280;72031;51.786;4.662;2023-09-19T05:28:57;101016.19;;;14.29;77.35
82395;BME280;72031;51.786;4.662;2023-09-19T05:31:23;101008.75;;;14.32;77.46
82395;BME280;72031;51.786;4.662;2023-09-19T05:33:49;101011.28;;;14.34;77.63
82395;BME280;72031;51.786;4.662;2023-09-19T05:36:15;101013.72;;;14.37;77.47
82395;BME280;72031;51.786;4.662;2023-09-19T05:38:42;101016.66;;;14.34;78.59
82395;BME280;72031;51.786;4.662;2023-09-19T05:41:09;101009.81;;;14.41;77.98
82395;BME280;72031;51.786;4.662;2023-09-19T05:43:39;101003.22;;;14.45;78.06
82395;BME280;72031;51.786;4.662;2023-09-19T05:46:06;100998.78;;;14.44;78.08
82395;BME280;72031;51.786;4.662;2023-09-19T05:48:34;100993.94;;;14.49;78.04
82395;BME280;72031;51.786;4.662;2023-09-19T05:50:59;101013.06;;;14.45;78.40
82395;BME280;72031;51.786;4.662;2023-09-19T05:53:26;101008.81;;;14.42;78.07
82395;BME280;72031;51.786;4.662;2023-09-19T05:55:51;101006.84;;;14.44;78.12
82395;BME280;72031;51.786;4.662;2023-09-19T05:58:18;101008.81;;;14.42;78.69
82395;BME280;72031;51.786;4.662;2023-09-19T06:00:45;101008.59;;;14.45;78.20
82395;BME280;72031;51.786;4.662;2023-09-19T06:03:13;101000.53;;;14.45;78.91
82395;BME280;72031;51.786;4.662;2023-09-19T06:05:39;101012.03;;;14.47;77.85
82395;BME280;72031;51.786;4.662;2023-09-19T06:08:07;101022.88;;;14.46;78.77
82395;BME280;72031;51.786;4.662;2023-09-19T06:10:36;101022.00;;;14.45;78.76
82395;BME280;72031;51.786;4.662;2023-09-19T06:13:04;101023.63;;;14.48;78.51
82395;BME280;72031;51.786;4.662;2023-09-19T06:15:31;101037.50;;;14.53;78.59
82395;BME280;72031;51.786;4.662;2023-09-19T06:17:59;101039.59;;;14.49;77.69
82395;BME280;72031;51.786;4.662;2023-09-19T06:20:27;101035.94;;;14.50;78.80
82395;BME280;72031;51.786;4.662;2023-09-19T06:22:54;101037.50;;;14.53;78.06
82395;BME280;72031;51.786;4.662;2023-09-19T06:25:20;101042.50;;;14.57;78.72
82395;BME280;72031;51.786;4.662;2023-09-19T06:27:47;101040.31;;;14.51;77.70
82395;BME280;72031;51.786;4.662;2023-09-19T06:30:12;101038.34;;;14.53;78.93
82395;BME280;72031;51.786;4.662;2023-09-19T06:32:39;101036.41;;;14.55;78.62
82395;BME280;72031;51.786;4.662;2023-09-19T06:35:05;101036.13;;;14.58;78.06
82395;BME280;72031;51.786;4.662;2023-09-19T06:37:36;101031.63;;;14.59;78.12
82395;BME280;72031;51.786;4.662;2023-09-19T06:42:34;101035.16;;;14.59;78.00
82395;BME280;72031;51.786;4.662;2023-09-19T06:45:04;101036.72;;;14.62;78.52
82395;BME280;72031;51.786;4.662;2023-09-19T06:47:29;101040.16;;;14.64;78.44
82395;BME280;72031;51.786;4.662;2023-09-19T06:49:55;101041.31;;;14.71;78.13
82395;BME280;72031;51.786;4.662;2023-09-19T06:52:20;101035.38;;;14.68;78.82
82395;BME280;72031;51.786;4.662;2023-09-19T06:54:46;101045.00;;;14.70;78.11
82395;BME280;72031;51.786;4.662;2023-09-19T06:57:16;101034.16;;;14.72;78.80
82395;BME280;72031;51.786;4.662;2023-09-19T06:59:41;101043.38;;;14.79;78.39
82395;BME280;72031;51.786;4.662;2023-09-19T07:02:06;101037.03;;;14.80;78.27
82395;BME280;72031;51.786;4.662;2023-09-19T07:04:33;101030.69;;;14.81;77.97
82395;BME280;72031;51.786;4.662;2023-09-19T07:06:59;101040.03;;;14.86;77.67
82395;BME280;72031;51.786;4.662;2023-09-19T07:09:24;101032.97;;;14.85;77.90
82395;BME280;72031;51.786;4.662;2023-09-19T07:11:52;101031.84;;;14.88;77.43
82395;BME280;72031;51.786;4.662;2023-09-19T07:14:18;101047.78;;;15.01;77.70
82395;BME280;72031;51.786;4.662;2023-09-19T07:16:44;101038.47;;;15.05;77.25
82395;BME280;72031;51.786;4.662;2023-09-19T07:19:10;101046.16;;;15.09;77.10
82395;BME280;72031;51.786;4.662;2023-09-19T07:21:36;101041.09;;;15.16;77.28
82395;BME280;72031;51.786;4.662;2023-09-19T07:24:04;101043.97;;;15.24;76.60
82395;BME280;72031;51.786;4.662;2023-09-19T07:26:29;101047.25;;;15.28;76.92
82395;BME280;72031;51.786;4.662;2023-09-19T07:28:56;101038.38;;;15.37;76.70
82395;BME280;72031;51.786;4.662;2023-09-19T07:31:22;101039.88;;;15.51;77.17
82395;BME280;72031;51.786;4.662;2023-09-19T07:33:48;101046.81;;;15.23;76.55
82395;BME280;72031;51.786;4.662;2023-09-19T07:36:14;101053.34;;;15.30;76.09
82395;BME280;72031;51.786;4.662;2023-09-19T07:38:40;101048.44;;;15.35;76.64
82395;BME280;72031;51.786;4.662;2023-09-19T07:41:07;101047.19;;;15.39;75.85
82395;BME280;72031;51.786;4.662;2023-09-19T07:43:35;101048.34;;;15.46;77.10
82395;BME280;72031;51.786;4.662;2023-09-19T07:46:05;101056.59;;;15.54;76.60
82395;BME280;72031;51.786;4.662;2023-09-19T07:48:33;101059.00;;;15.47;76.48
82395;BME280;72031;51.786;4.662;2023-09-19T07:51:03;101060.69;;;15.48;76.94
82395;BME280;72031;51.786;4.662;2023-09-19T07:53:29;101056.59;;;15.54;76.21
82395;BME280;72031;51.786;4.662;2023-09-19T07:56:02;101061.19;;;15.63;76.04
82395;BME280;72031;51.786;4.662;2023-09-19T07:58:29;101054.28;;;15.70;75.08
82395;BME280;72031;51.786;4.662;2023-09-19T08:00:54;101042.72;;;15.80;74.64
82395;BME280;72031;51.786;4.662;2023-09-19T08:03:20;101051.03;;;15.67;75.49
82395;BME280;72031;51.786;4.662;2023-09-19T08:05:45;101054.50;;;15.58;75.16
82395;BME280;72031;51.786;4.662;2023-09-19T08:08:11;101057.19;;;15.58;74.82
82395;BME280;72031;51.786;4.662;2023-09-19T08:10:39;101055.81;;;15.63;75.27
82395;BME280;72031;51.786;4.662;2023-09-19T08:13:07;101057.06;;;15.59;75.12
82395;BME280;72031;51.786;4.662;2023-09-19T08:15:43;101053.06;;;15.54;74.34
82395;BME280;72031;51.786;4.662;2023-09-19T08:18:09;101061.66;;;15.68;73.83
82395;BME280;72031;51.786;4.662;2023-09-19T08:20:37;101055.28;;;15.69;73.63
82395;BME280;72031;51.786;4.662;2023-09-19T08:23:03;101058.41;;;15.65;74.80
82395;BME280;72031;51.786;4.662;2023-09-19T08:25:29;101051.88;;;15.67;75.46
82395;BME280;72031;51.786;4.662;2023-09-19T08:27:55;101049.94;;;15.79;74.59
82395;BME280;72031;51.786;4.662;2023-09-19T08:30:25;101055.03;;;15.72;74.57
82395;BME280;72031;51.786;4.662;2023-09-19T08:32:59;101060.50;;;15.92;74.59
82395;BME280;72031;51.786;4.662;2023-09-19T08:35:25;101045.72;;;15.86;73.84
82395;BME280;72031;51.786;4.662;2023-09-19T08:37:51;101047.03;;;15.92;74.94
82395;BME280;72031;51.786;4.662;2023-09-19T08:40:17;101048.06;;;16.10;73.90
82395;BME280;72031;51.786;4.662;2023-09-19T08:42:49;101037.59;;;16.17;73.08
82395;BME280;72031;51.786;4.662;2023-09-19T08:45:15;101039.75;;;16.32;73.55
82395;BME280;72031;51.786;4.662;2023-09-19T08:47:46;101043.31;;;16.43;74.87
82395;BME280;72031;51.786;4.662;2023-09-19T08:50:23;101026.00;;;16.45;72.61
82395;BME280;72031;51.786;4.662;2023-09-19T08:52:52;101029.44;;;16.57;73.21
82395;BME280;72031;51.786;4.662;2023-09-19T08:55:23;101033.97;;;16.66;72.42
82395;BME280;72031;51.786;4.662;2023-09-19T08:58:04;101029.44;;;16.57;73.01
82395;BME280;72031;51.786;4.662;2023-09-19T09:00:32;101037.38;;;16.68;71.58
82395;BME280;72031;51.786;4.662;2023-09-19T09:03:01;101033.72;;;16.69;71.22
82395;BME280;72031;51.786;4.662;2023-09-19T09:05:28;101032.69;;;16.89;72.34
82395;BME280;72031;51.786;4.662;2023-09-19T09:07:55;101024.47;;;17.01;71.79
82395;BME280;72031;51.786;4.662;2023-09-19T09:10:22;101041.06;;;17.06;70.95
82395;BME280;72031;51.786;4.662;2023-09-19T09:12:52;101035.69;;;16.86;70.54
82395;BME280;72031;51.786;4.662;2023-09-19T09:15:21;101023.50;;;16.82;71.41
82395;BME280;72031;51.786;4.662;2023-09-19T09:17:49;101036.84;;;16.84;71.11
82395;BME280;72031;51.786;4.662;2023-09-19T09:20:19;101032.88;;;16.78;70.09
82395;BME280;72031;51.786;4.662;2023-09-19T09:22:56;101036.53;;;16.97;69.63
82395;BME280;72031;51.786;4.662;2023-09-19T09:28:21;101019.97;;;17.38;69.97
82395;BME280;72031;51.786;4.662;2023-09-19T09:30:46;101042.44;;;17.29;69.73
82395;BME280;72031;51.786;4.662;2023-09-19T09:33:13;101045.59;;;17.15;70.03
82395;BME280;72031;51.786;4.662;2023-09-19T09:36:00;101044.19;;;17.01;70.28
82395;BME280;72031;51.786;4.662;2023-09-19T09:38:28;101036.25;;;17.00;70.98
82395;BME280;72031;51.786;4.662;2023-09-19T09:40:58;101035.53;;;17.17;71.02
82395;BME280;72031;51.786;4.662;2023-09-19T09:43:32;101031.38;;;17.32;70.01
82395;BME280;72031;51.786;4.662;2023-09-19T09:46:15;101036.78;;;17.32;70.15
82395;BME280;72031;51.786;4.662;2023-09-19T09:48:58;101023.63;;;17.47;69.62
82395;BME280;72031;51.786;4.662;2023-09-19T09:51:49;101026.44;;;17.55;69.44
82395;BME280;72031;51.786;4.662;2023-09-19T09:54:29;101030.19;;;17.44;67.83
82395;BME280;72031;51.786;4.662;2023-09-19T09:57:07;101026.25;;;17.29;69.15
82395;BME280;72031;51.786;4.662;2023-09-19T10:02:19;101017.38;;;17.93;69.72
82395;BME280;72031;51.786;4.662;2023-09-19T10:04:51;101037.03;;;17.86;67.43
82395;BME280;72031;51.786;4.662;2023-09-19T10:07:43;101030.97;;;17.74;67.61
82395;BME280;72031;51.786;4.662;2023-09-19T10:10:37;101028.56;;;17.61;67.64
82395;BME280;72031;51.786;4.662;2023-09-19T10:13:10;101015.31;;;17.78;67.85
82395;BME280;72031;51.786;4.662;2023-09-19T10:15:44;101021.16;;;17.73;69.03
82395;BME280;72031;51.786;4.662;2023-09-19T10:18:21;101009.38;;;17.74;69.20
82395;BME280;72031;51.786;4.662;2023-09-19T10:20:47;101001.91;;;17.86;67.76
82395;BME280;72031;51.786;4.662;2023-09-19T10:23:17;101012.09;;;17.74;67.71
82395;BME280;72031;51.786;4.662;2023-09-19T10:25:48;101013.25;;;17.89;67.45
82395;BME280;72031;51.786;4.662;2023-09-19T10:28:16;100995.16;;;17.72;67.61
82395;BME280;72031;51.786;4.662;2023-09-19T10:33:14;100988.94;;;18.17;66.14
82395;BME280;72031;51.786;4.662;2023-09-19T10:35:50;100977.81;;;18.38;66.07
82395;BME280;72031;51.786;4.662;2023-09-19T10:38:27;100980.59;;;18.64;66.03
82395;BME280;72031;51.786;4.662;2023-09-19T10:40:56;100977.31;;;18.70;65.21
82395;BME280;72031;51.786;4.662;2023-09-19T10:43:32;100975.50;;;18.61;64.03
82395;BME280;72031;51.786;4.662;2023-09-19T10:46:06;100975.97;;;18.74;63.78
82395;BME280;72031;51.786;4.662;2023-09-19T10:48:33;100984.91;;;18.56;65.52
82395;BME280;72031;51.786;4.662;2023-09-19T10:51:10;100979.38;;;18.40;64.77
82395;BME280;72031;51.786;4.662;2023-09-19T10:56:43;100985.16;;;18.81;63.23
82395;BME280;72031;51.786;4.662;2023-09-19T10:59:14;100972.66;;;18.62;64.11
82395;BME280;72031;51.786;4.662;2023-09-19T11:01:49;100965.31;;;18.72;62.90
82395;BME280;72031;51.786;4.662;2023-09-19T11:07:05;100958.72;;;18.67;62.43
82395;BME280;72031;51.786;4.662;2023-09-19T11:15:07;100944.38;;;18.74;64.45
82395;BME280;72031;51.786;4.662;2023-09-19T11:17:38;100957.00;;;18.92;63.35
82395;BME280;72031;51.786;4.662;2023-09-19T11:30:45;100946.28;;;18.64;65.25
82395;BME280;72031;51.786;4.662;2023-09-19T11:33:22;100944.88;;;18.70;64.15
82395;BME280;72031;51.786;4.662;2023-09-19T11:36:05;100946.72;;;18.69;64.12
82395;BME280;72031;51.786;4.662;2023-09-19T11:46:53;100943.72;;;18.37;65.60
82395;BME280;72031;51.786;4.662;2023-09-19T11:49:26;100941.84;;;18.37;66.57
82395;BME280;72031;51.786;4.662;2023-09-19T11:51:56;100942.47;;;18.31;66.50
82395;BME280;72031;51.786;4.662;2023-09-19T11:54:21;100944.31;;;18.48;66.19
82395;BME280;72031;51.786;4.662;2023-09-19T11:56:49;100927.97;;;18.68;66.85
82395;BME280;72031;51.786;4.662;2023-09-19T11:59:23;100942.63;;;18.65;66.29
82395;BME280;72031;51.786;4.662;2023-09-19T12:01:54;100946.56;;;18.53;65.94
82395;BME280;72031;51.786;4.662;2023-09-19T12:04:43;100943.28;;;18.49;66.83
82395;BME280;72031;51.786;4.662;2023-09-19T12:07:15;100935.75;;;18.53;66.85
82395;BME280;72031;51.786;4.662;2023-09-19T12:09:49;100931.13;;;18.45;66.17
82395;BME280;72031;51.786;4.662;2023-09-19T12:12:28;100939.28;;;18.53;65.75
82395;BME280;72031;51.786;4.662;2023-09-19T12:14:54;100942.09;;;18.44;65.61
82395;BME280;72031;51.786;4.662;2023-09-19T12:17:34;100944.31;;;18.31;66.68
82395;BME280;72031;51.786;4.662;2023-09-19T12:20:01;100938.47;;;18.35;66.13
82395;BME280;72031;51.786;4.662;2023-09-19T12:22:41;100947.25;;;18.37;67.12
82395;BME280;72031;51.786;4.662;2023-09-19T12:25:09;100944.38;;;18.39;66.88
82395;BME280;72031;51.786;4.662;2023-09-19T12:27:46;100941.84;;;18.37;66.14
82395;BME280;72031;51.786;4.662;2023-09-19T12:30:13;100946.66;;;18.43;67.33
82395;BME280;72031;51.786;4.662;2023-09-19T12:32:40;100940.47;;;18.51;66.02
82395;BME280;72031;51.786;4.662;2023-09-19T12:35:06;100945.72;;;18.52;65.61
82395;BME280;72031;51.786;4.662;2023-09-19T12:37:45;100954.44;;;18.46;65.74
82395;BME280;72031;51.786;4.662;2023-09-19T12:40:21;100949.16;;;18.63;65.31
82395;BME280;72031;51.786;4.662;2023-09-19T12:42:53;100952.41;;;18.66;66.66
82395;BME280;72031;51.786;4.662;2023-09-19T12:45:21;100937.50;;;18.62;66.47
82395;BME280;72031;51.786;4.662;2023-09-19T12:53:32;100952.19;;;18.60;66.75
82395;BME280;72031;51.786;4.662;2023-09-19T12:55:59;100946.88;;;18.68;66.12
82395;BME280;72031;51.786;4.662;2023-09-19T12:58:25;100943.84;;;18.71;65.85
82395;BME280;72031;51.786;4.662;2023-09-19T13:00:51;100948.03;;;18.91;65.41
82395;BME280;72031;51.786;4.662;2023-09-19T13:03:29;100930.59;;;19.11;65.07
82395;BME280;72031;51.786;4.662;2023-09-19T13:06:01;100929.03;;;19.61;64.15
82395;BME280;72031;51.786;4.662;2023-09-19T13:13:40;100937.63;;;19.30;63.75
82395;BME280;72031;51.786;4.662;2023-09-19T13:16:06;100945.75;;;19.30;65.07
82395;BME280;72031;51.786;4.662;2023-09-19T13:18:47;100931.66;;;19.19;64.52
82395;BME280;72031;51.786;4.662;2023-09-19T13:21:16;100927.66;;;19.31;63.60
82395;BME280;72031;51.786;4.662;2023-09-19T13:23:53;100932.56;;;19.27;63.93
82395;BME280;72031;51.786;4.662;2023-09-19T13:26:20;100935.69;;;19.15;62.80
82395;BME280;72031;51.786;4.662;2023-09-19T13:28:45;100942.06;;;19.05;64.45
82395;BME280;72031;51.786;4.662;2023-09-19T13:31:13;100925.63;;;18.99;63.64
82395;BME280;72031;51.786;4.662;2023-09-19T13:33:43;100932.41;;;19.03;65.26
82395;BME280;72031;51.786;4.662;2023-09-19T13:36:10;100932.16;;;18.88;65.10
82395;BME280;72031;51.786;4.662;2023-09-19T13:38:37;100920.88;;;18.93;64.94
82395;BME280;72031;51.786;4.662;2023-09-19T13:41:02;100915.91;;;18.88;65.08
82395;BME280;72031;51.786;4.662;2023-09-19T13:43:28;100912.16;;;18.81;65.39
82395;BME280;72031;51.786;4.662;2023-09-19T13:45:54;100914.69;;;18.82;65.22
82395;BME280;72031;51.786;4.662;2023-09-19T13:48:19;100916.44;;;18.92;66.07
82395;BME280;72031;51.786;4.662;2023-09-19T13:50:48;100920.09;;;18.82;65.16
82395;BME280;72031;51.786;4.662;2023-09-19T13:53:13;100921.81;;;18.83;65.38
82395;BME280;72031;51.786;4.662;2023-09-19T13:55:39;100925.88;;;18.88;64.29
82395;BME280;72031;51.786;4.662;2023-09-19T13:58:05;100922.34;;;18.87;64.73
82395;BME280;72031;51.786;4.662;2023-09-19T14:00:32;100933.84;;;18.89;64.82
82395;BME280;72031;51.786;4.662;2023-09-19T14:03:00;100929.22;;;18.81;64.38
82395;BME280;72031;51.786;4.662;2023-09-19T14:05:26;100930.72;;;18.76;65.33